WEATHER DATA

YESTERDAY
Time Temp. Dewp. Hum. Wind dir Wind speed Wind gust Bar. 1h Prec. 24h Prec.
00:06 7.5 0.5 61 0 0.8 1029.8 0.0000 0.0000
00:26 7.4 0.6 62 90 0.3 0.8 1030.2 0.0000 0.0000
00:36 7.5 0.7 62 209 0.3 0.8 1030 0.0000 0.0000
00:46 7.5 0.9 63 209 0.3 0.8 1029.7 0.0000 0.0000
01:06 7.6 1 63 33 0.3 0.8 1030 0.0000 0.0000
01:16 7.6 1 63 57 0.3 0.8 1029.9 0.0000 0.0000
01:26 7.6 1 63 45 0.3 0.8 1029.8 0.0000 0.0000
01:36 7.7 1.1 63 341 0.3 0.8 1029.7 0.0000 0.0000
01:56 7.8 1.2 63 26 0.3 1.1 1029.6 0.0000 0.0000
02:07 7.9 1.3 63 225 0.3 0.8 1029.7 0.0000 0.0000
02:16 8 1.4 63 225 0.3 0.8 1029.6 0.0000 0.0000
02:26 8.1 1.7 64 225 0.3 0.8 1029.2 0.0000 0.0000
02:37 8.1 1.7 64 32 0.3 0.3 1029.4 0.0000 0.0000
02:47 8.1 1.7 64 270 0.3 0.8 1029.6 0.0000 0.0000
02:56 8.1 1.7 64 45 0.3 0.8 1029.4 0.0000 0.0000
03:06 8.2 2 65 40 0.3 1.1 1029.4 0.0000 0.0000
03:17 8.2 2 65 225 0.3 1.1 1029.1 0.0000 0.0000
03:27 8.2 2.2 66 54 0.3 1.1 1029.1 0.0000 0.0000
03:36 8.2 2.2 66 23 0.3 1.1 1028.9 0.0000 0.0000
03:47 8.2 2.2 66 135 0.3 0.8 1029 0.0000 0.0000
03:57 8.2 2.4 67 45 0.3 1.1 1029 0.0000 0.0000
04:07 8.2 2.4 67 90 0.3 0.8 1029.1 0.0000 0.0000
04:17 8.2 2.4 67 153 0.3 0.8 1029 0.0000 0.0000
04:27 8.2 2.4 67 90 0.3 1.1 1029 0.0000 0.0000
04:37 8.2 2.7 68 215 0.3 0.8 1028.7 0.0000 0.0000
04:47 8.2 2.4 67 270 0.3 0.8 1028.9 0.0000 0.0000
04:58 8.1 2.6 68 60 0.3 0.8 1029 0.0000 0.0000
05:07 8.2 2.9 69 0 0.3 0.8 1029 0.0000 0.0000
05:17 8.2 2.9 69 90 0.3 0.8 1028.8 0.0000 0.0000
05:27 8.2 2.9 69 0 0.3 1028.9 0.0000 0.0000
05:38 8.3 3.2 70 45 0.3 0.8 1028.9 0.0000 0.0000
05:47 8.2 3.1 70 30 0.3 0.8 1028.8 0.0000 0.0000
05:57 8.3 3.2 70 45 0.3 0.8 1028.8 0.0000 0.0000
06:08 8.3 3.2 70 341 0.3 0.8 1028.8 0.0000 0.0000
06:18 8.5 3.3 70 146 0.3 0.8 1028.8 0.0000 0.0000
06:27 8.7 3.5 70 45 0.3 0.8 1028.8 0.0000 0.0000
06:37 8.8 3.6 70 270 0.3 0.8 1028.6 0.0000 0.0000
06:48 9.1 3.9 70 0 0.3 1028.5 0.0000 0.0000
06:58 9.3 3.9 69 90 0.3 0.8 1028.3 0.0000 0.0000
07:08 9.5 4.1 69 126 0.3 0.8 1028.6 0.0000 0.0000
07:18 9.8 4.4 69 15 0.3 1.1 1028.3 0.0000 0.0000
07:28 10.1 4.5 68 45 0.3 1.1 1028.6 0.0000 0.0000
07:38 10.4 5 69 90 0.3 0.8 1028.5 0.0000 0.0000
07:48 11.5 5.8 68 53 0.3 0.8 1028.3 0.0000 0.0000
07:58 12.1 5.3 63 90 0.3 1.1 1028.5 0.0000 0.0000
08:08 12.4 4.6 59 242 0.8 1.7 1028.3 0.0000 0.0000
08:18 12.6 5 60 186 0.8 2.2 1028.5 0.0000 0.0000
08:29 12.7 4.7 58 213 1.1 2.2 1028.5 0.0000 0.0000
08:38 12.9 4.8 58 228 1.4 2.5 1028.7 0.0000 0.0000
08:48 13.2 4.6 56 162 0.8 1.7 1028.5 0.0000 0.0000
08:58 13.8 4.9 55 145 0.8 1.4 1028.2 0.0000 0.0000
09:09 14 4.8 54 140 0.8 1.4 1028.3 0.0000 0.0000
09:18 14.3 5.1 54 171 0.8 2.5 1028.1 0.0000 0.0000
09:28 14.5 5.3 54 161 0.8 2.2 1028.1 0.0000 0.0000
09:39 14.4 5 53 205 0.8 2.2 1028 0.0000 0.0000
09:49 15 5.2 52 90 0.8 2.2 1028.1 0.0000 0.0000
09:59 15 5 51 225 0.8 1.7 1028.1 0.0000 0.0000
10:19 15.5 5.1 50 168 0.8 1.7 1027.8 0.0000 0.0000
10:29 15.8 5.4 50 180 1.1 2.2 1027.5 0.0000 0.0000
10:39 15.7 5.3 50 104 0.8 1.4 1027.5 0.0000 0.0000
10:49 15.6 4.9 49 172 0.8 2.5 1027.4 0.0000 0.0000
10:59 15.4 5.3 51 186 0.8 1.7 1027.3 0.0000 0.0000
11:09 15.3 4.9 50 135 0.8 1.7 1027.3 0.0000 0.0000
11:19 14.9 4.9 51 100 0.8 2.2 1027.3 0.0000 0.0000
11:29 14.9 4.9 51 333 0.8 1.7 1027 0.0000 0.0000
11:39 15.1 5 51 212 0.8 3.6 1027.1 0.0000 0.0000
11:49 15.1 4.8 50 187 0.8 2.2 1027.1 0.0000 0.0000
12:00 15.2 4.6 49 45 0.8 3.6 1026.9 0.0000 0.0000
12:09 15.4 4.5 48 3 1.1 2.5 1026.9 0.0000 0.0000
12:19 15.6 4.9 49 63 0.8 2.5 1026.6 0.0000 0.0000
12:40 15.8 4.2 46 344 0.8 2.2 1026.5 0.0000 0.0000
12:50 15.9 4.6 47 90 0.8 2.2 1026.4 0.0000 0.0000
12:59 16.1 4.2 45 11 0.8 2.2 1026.3 0.0000 0.0000
13:10 16.3 4.4 45 45 0.8 2.5 1026.3 0.0000 0.0000
13:20 16.1 3.9 44 322 0.8 2.2 1026.5 0.0000 0.0000
13:30 15.8 3.9 45 180 0.8 2.2 1026.4 0.0000 0.0000
13:40 15.8 3.9 45 174 0.8 2.5 1026.3 0.0000 0.0000
14:00 15.8 3.9 45 90 0.8 1.7 1026.4 0.0000 0.0000
14:10 15.9 4 45 167 0.8 3.1 1026.5 0.0000 0.0000
14:30 16.5 4.2 44 208 0.8 2.2 1026.6 0.0000 0.0000
14:40 16.6 4.3 44 171 0.3 1.7 1026.5 0.0000 0.0000
14:50 16.6 4.3 44 191 0.8 1.7 1026.6 0.0000 0.0000
15:01 16.7 4.7 45 186 0.8 2.5 1026.6 0.0000 0.0000
15:10 16.7 4.4 44 176 0.8 2.5 1026.6 0.0000 0.0000
15:20 16.6 4.3 44 150 0.8 2.2 1026.6 0.0000 0.0000
15:31 16.3 3.7 43 135 0.8 2.8 1026.4 0.0000 0.0000
15:41 16 4.1 45 200 0.8 3.1 1026.5 0.0000 0.0000
15:50 15.8 3.9 45 159 1.1 4.4 1026.3 0.0000 0.0000
16:01 15.7 3.5 44 201 1.1 7.2 1026.3 0.0000 0.0000
16:16 15.6 3.1 43 232 1.1 3.6 1026.3 0.0000 0.0000
16:26 16 3.4 43 197 1.1 3.1 1025.7 0.0000 0.0000
16:36 16.2 3.6 43 185 0.8 4.2 1025.7 0.0000 0.0000
16:46 16.4 3.5 42 167 1.1 4.2 1025.6 0.0000 0.0000
16:56 16.6 4 43 208 1.1 3.9 1025.6 0.0000 0.0000
17:06 16.7 3.4 41 186 1.4 2.8 1025.6 0.0000 0.0000
17:16 16.7 3.4 41 135 0.8 2.2 1025.6 0.0000 0.0000
17:26 16.8 3.1 40 120 0.8 3.1 1025.5 0.0000 0.0000
17:36 16.8 3.1 40 161 1.1 2.8 1025.4 0.0000 0.0000
17:46 16.7 3 40 174 1.1 2.8 1025.3 0.0000 0.0000
17:56 16.5 2.9 40 225 0.8 3.1 1025.7 0.0000 0.0000
18:06 16.5 2.9 40 200 1.4 4.4 1025.8 0.0000 0.0000
18:16 16.3 2.7 40 202 1.1 3.6 1025.8 0.0000 0.0000
18:27 16.2 2.6 40 135 1.1 3.1 1025.8 0.0000 0.0000
18:37 16 2.8 41 209 0.8 1.7 1026.1 0.0000 0.0000
18:46 15.7 2.5 41 180 0.8 3.1 1026.1 0.0000 0.0000
18:57 15.5 2.7 42 108 0.8 2.2 1026.1 0.0000 0.0000
19:07 15.1 2 41 175 1.4 5 1026.4 0.0000 0.0000
19:17 14.6 2.2 43 183 1.1 2.5 1026.9 0.0000 0.0000
19:26 14.2 2.1 44 169 1.7 4.2 1026.9 0.0000 0.0000
19:37 13.8 2.1 45 206 1.1 2.8 1026.5 0.0000 0.0000
19:47 13.4 2 46 90 1.1 2.5 1026.1 0.0000 0.0000
19:57 13 2 47 77 1.4 5.6 1026.9 0.0000 0.0000
20:07 12.8 2.1 48 90 1.4 5.3 1026.6 0.0000 0.0000
20:17 12.6 1.9 48 300 1.1 4.2 1026.9 0.0000 0.0000
20:27 12.4 1.7 48 161 1.1 3.6 1027 0.0000 0.0000
20:37 12.2 1.8 49 45 0.8 2.2 1027.1 0.0000 0.0000
20:47 12 1.9 50 68 0.8 1.4 1027.2 0.0000 0.0000
20:57 11.9 2.1 51 11 0.8 2.5 1027.8 0.0000 0.0000
21:07 11.8 2.3 52 135 1.4 5.3 1028.5 0.0000 0.0000
21:18 11.4 3.7 59 239 1.1 4.4 1028.7 0.2020 0.2000
21:27 11 2.8 57 25 1.1 3.6 1028.7 0.2020 0.2000
21:37 10.6 3.2 60 0 0.3 1.1 1028.7 0.2020 0.2000
21:47 10.2 3.7 64 17 0.8 1.7 1028.9 0.2020 0.2000
21:58 10 3.3 63 40 0.8 2.2 1029.2 0.1010 0.3000
22:07 9.8 3.5 65 40 0.8 2.8 1028.8 0.3030 0.5000
22:17 9.5 3.5 66 0 0.3 1.4 1028.7 0.4040 0.6000
22:28 9 3.4 68 0.3 1.7 1028.9 0.4040 0.6000
22:38 8.8 3.6 70 8 0.3 0.8 1029.2 0.3030 0.6000
22:47 8.7 3.5 70 45 0.3 1.4 1029.1 0.2020 0.7000
22:57 8.7 3.7 71 16 0.8 1.4 1029 0.2020 0.8000
23:08 8.6 3.6 71 3 0.3 1.7 1028.8 0.2020 0.8000
23:18 8.3 3.6 72 0 0.8 1028.8 0.1010 0.8000
23:28 8.1 3.6 73 14 0.3 1.1 1028.8 0.0000
23:38 7.8 3.5 74 54 0.3 1.4 1028.8 0.0000
23:48 7.5 3.2 74 4 0.3 1.4 1028.9 0.0000
23:58 7.4 3.1 74 45 0.3 0.8 1028.7 0.0000

DAY STATISTIC

2020-05-25
TEMPERATURE
AVERAGE
12.2
HIGH
16.8
17:26
LOW
7.4
00:26
PRESSURE
AVERAGE
1027.8
HIGH
1030.2
00:26
LOW
1025.3
17:46
DEWPOINT
AVERAGE
3.3
HIGH
5.8
07:48
LOW
0.5
00:06
HUMIDITY
AVERAGE
56
HIGH
74
23:38
LOW
40
17:26
WIND SPEED
AVERAGE
0.7
HIGH
1.7
19:26
WIND GUST
AVERAGE
2.0
HIGH
7.2
16:01
WIND DIRECTION
PREVAILING
S
23.5%
N
11.8
NE
19.9
E
12.5
SE
9.6
S
23.5
SW
14.7
W
2.2
NW
2.2
PRECIPITATION
RAIN HOUR
0.4
RAIN DAY
0.8
TEMPERATURE (°C)
LOW
7.4
HIGH
16.8
AVERAGE
12.2
PRESSURE (hpa)
LOW
1025.3
HIGH
1030.2
AVERAGE
1027.8
DEVICE